Cementville, Indiana
Current Conditions -  °F | °C
As of 10:53 AM on Thursday 27 Nov 2014 (Local Time) from KLOU Reporting Station
Overcast Overcast  
Wind Chill: 24°   Ceiling: 2600
Heat Index: 32°   Visibility: 10mi
Dew Point: 23°   Wind: 10mph
Humidity: 69%   Direction: 300°WNW
Pressure: 30.35"   Gusts: NA
Location:  38.3363°N, 85.6984°W
Report Text: KLOU 271553Z 30009KT 10SM OVC026 00/M05 A3035 RMK AO2 SLP283 T00001050
Loading
Personal Weather Stations






























Interactive Weather Map New forecast layout! Learn more

10-Day Weather Forecast

Advertisements
Track Severe Weather on mobile